Terminal Aerodrome Forecast
Issued by NWS

Home | Current Version | Previous Version | Text Only | Print | Product List | Glossary On
Versions: 1 2 3 4 5 6 7 8 9 10 11 12 13 14 15 16 17
000
FTUS46 KOTX 201737
TAFCOE
TAF
KCOE 201737Z 2018/2118 21006KT 3SM -SHSN SCT009 BKN025 OVC040
     FM202300 19005KT P6SM VCSH SCT025 BKN050
     FM210400 16005KT P6SM BKN025 BKN200
     FM211300 13008KT P6SM SCT070 BKN150=

USA.gov is the U.S. government's official web portal to all federal, state and local government web resources and services.